Time;durP1;ratioP1;P1;durP2;ratioP2;P2;SDS_P1;SDS_P2;PMS_P1;PMS_P2;Temp;Humidity;BMP_temperature;BMP_pressure;BME280_temperature;BME280_humidity;BME280_pressure;Samples;Min_cycle;Max_cycle;Signal;HPM_P1;HPM_P2
2023/05/27 00:00:02;;;;;;;;;;;19.20;49.60;;;;;;5053466;28;20015;-72
2023/05/27 00:02:28;;;;;;;;;;;19.20;49.60;;;;;;5053493;28;19974;-72
2023/05/27 00:04:53;;;;;;;;;;;19.20;49.60;;;;;;5071313;28;20342;-72
2023/05/27 00:07:19;;;;;;;;;;;19.20;49.60;;;;;;5053114;28;20024;-71
2023/05/27 00:09:45;;;;;;;;;;;19.30;49.70;;;;;;5053480;28;19920;-71
2023/05/27 00:12:10;;;;;;;;;;;19.20;49.60;;;;;;5071388;28;19970;-71
2023/05/27 00:14:36;;;;;;;;;;;19.20;49.60;;;;;;5053814;28;19974;-70
2023/05/27 00:17:03;;;;;;;;;;;19.20;49.60;;;;;;5053552;28;19939;-69
2023/05/27 00:19:30;;;;;;;;;;;19.20;49.60;;;;;;5071271;28;20015;-71
2023/05/27 00:21:56;;;;;;;;;;;19.10;49.50;;;;;;5053269;28;19967;-72
2023/05/27 00:24:22;;;;;;;;;;;19.20;49.60;;;;;;5056537;28;19955;-71
2023/05/27 00:26:48;;;;;;;;;;;19.20;49.50;;;;;;5057672;28;19927;-71
2023/05/27 00:29:15;;;;;;;;;;;19.10;49.60;;;;;;5057454;28;20279;-71
2023/05/27 00:31:41;;;;;;;;;;;19.10;49.50;;;;;;5075156;28;20000;-72
2023/05/27 00:34:06;;;;;;;;;;;19.10;49.50;;;;;;5057044;28;20066;-71
2023/05/27 00:36:31;;;;;;;;;;;19.10;49.50;;;;;;5075103;28;19932;-69
2023/05/27 00:38:57;;;;;;;;;;;19.10;49.50;;;;;;5075185;28;19921;-71
2023/05/27 00:41:23;;;;;;;;;;;19.10;49.50;;;;;;5056945;28;19926;-72
2023/05/27 00:43:48;;;;;;;;;;;19.10;49.50;;;;;;5056986;28;20395;-71
2023/05/27 00:46:14;;;;;;;;;;;19.10;49.50;;;;;;5074602;28;19921;-71
2023/05/27 00:48:40;;;;;;;;;;;19.10;49.50;;;;;;5074752;28;20338;-71
2023/05/27 00:51:05;;;;;;;;;;;19.10;49.50;;;;;;5056703;28;19920;-71
2023/05/27 00:53:36;;;;;;;;;;;19.10;49.50;;;;;;5056687;28;19920;-71
2023/05/27 00:56:02;;;;;;;;;;;19.00;49.50;;;;;;5056621;28;19924;-71
2023/05/27 00:58:27;;;;;;;;;;;19.00;49.40;;;;;;5074711;28;19931;-71
2023/05/27 01:00:53;;;;;;;;;;;19.00;49.50;;;;;;5056368;28;19920;-71
2023/05/27 01:03:20;;;;;;;;;;;19.00;49.50;;;;;;5055612;28;20375;-72
2023/05/27 01:05:45;;;;;;;;;;;19.00;49.50;;;;;;5056130;28;19971;-71
2023/05/27 01:08:20;;;;;;;;;;;19.00;49.50;;;;;;5055979;28;19968;-71
2023/05/27 01:10:49;;;;;;;;;;;19.00;49.50;;;;;;5055575;28;19921;-71
2023/05/27 01:13:35;;;;;;;;;;;19.00;49.40;;;;;;5074535;28;19970;-69
2023/05/27 01:16:01;;;;;;;;;;;18.90;49.40;;;;;;5055786;28;20334;-71
2023/05/27 01:18:29;;;;;;;;;;;18.90;49.40;;;;;;5056051;28;19920;-71
2023/05/27 01:20:58;;;;;;;;;;;18.90;49.40;;;;;;5055987;28;20010;-70
2023/05/27 01:23:24;;;;;;;;;;;18.90;49.50;;;;;;5055715;28;19921;-71
2023/05/27 01:25:50;;;;;;;;;;;18.90;49.40;;;;;;5055713;28;19925;-69
2023/05/27 01:28:15;;;;;;;;;;;18.90;49.40;;;;;;5055748;28;19927;-73
2023/05/27 01:30:41;;;;;;;;;;;18.90;49.50;;;;;;5055681;28;19920;-70
2023/05/27 01:35:48;;;;;;;;;;;18.80;49.40;;;;;;5126154;27;1901971;-71
2023/05/27 01:38:16;;;;;;;;;;;18.80;49.50;;;;;;5174186;27;20270;-71
2023/05/27 01:40:41;;;;;;;;;;;18.80;49.50;;;;;;5173966;27;19919;-71
2023/05/27 01:43:08;;;;;;;;;;;18.80;49.50;;;;;;5173537;27;19919;-71
2023/05/27 01:45:34;;;;;;;;;;;18.80;49.50;;;;;;5173885;27;19919;-71
2023/05/27 01:48:00;;;;;;;;;;;18.80;49.50;;;;;;5173397;27;20010;-71
2023/05/27 01:50:25;;;;;;;;;;;18.80;49.50;;;;;;5173786;27;20002;-70
2023/05/27 01:52:51;;;;;;;;;;;18.70;49.50;;;;;;5173666;27;19919;-70
2023/05/27 01:55:17;;;;;;;;;;;18.80;49.50;;;;;;5173470;27;19922;-71
2023/05/27 01:57:43;;;;;;;;;;;18.70;49.50;;;;;;5174064;27;19919;-72
2023/05/27 02:00:09;;;;;;;;;;;18.70;49.50;;;;;;5173975;27;20298;-71
2023/05/27 02:02:35;;;;;;;;;;;18.70;49.50;;;;;;5192754;27;19962;-71
2023/05/27 02:05:00;;;;;;;;;;;18.70;50.20;;;;;;5174250;27;20005;-71
2023/05/27 02:07:26;;;;;;;;;;;18.80;49.60;;;;;;5192797;27;19918;-71
2023/05/27 02:09:52;;;;;;;;;;;18.70;49.50;;;;;;5174152;27;20280;-71
2023/05/27 02:12:17;;;;;;;;;;;18.70;49.40;;;;;;5174044;27;19919;-71
2023/05/27 02:14:44;;;;;;;;;;;18.70;49.40;;;;;;5173128;27;20014;-71
2023/05/27 02:17:10;;;;;;;;;;;18.70;49.50;;;;;;5173560;27;19919;-72
2023/05/27 02:19:36;;;;;;;;;;;18.70;49.40;;;;;;5173894;27;19978;-72
2023/05/27 02:22:01;;;;;;;;;;;18.70;49.50;;;;;;5173586;27;19919;-71
2023/05/27 02:24:27;;;;;;;;;;;18.60;49.40;;;;;;5173594;27;19919;-72
2023/05/27 02:26:52;;;;;;;;;;;18.60;49.40;;;;;;5191625;27;19918;-71
2023/05/27 02:29:18;;;;;;;;;;;18.70;49.50;;;;;;5173103;27;19992;-71
2023/05/27 02:31:43;;;;;;;;;;;18.60;49.40;;;;;;5172887;27;19994;-71
2023/05/27 02:34:09;;;;;;;;;;;18.60;49.40;;;;;;5172489;27;19929;-71
2023/05/27 02:36:35;;;;;;;;;;;18.60;49.40;;;;;;5172620;27;19919;-71
2023/05/27 02:39:00;;;;;;;;;;;18.60;49.40;;;;;;5191441;27;19972;-71
2023/05/27 02:41:26;;;;;;;;;;;18.60;49.40;;;;;;5173176;27;19926;-71
2023/05/27 02:43:51;;;;;;;;;;;18.60;49.40;;;;;;5172582;27;19919;-71
2023/05/27 02:46:17;;;;;;;;;;;18.60;49.40;;;;;;5182232;27;19963;-71
2023/05/27 02:48:43;;;;;;;;;;;18.60;49.40;;;;;;5158775;27;19963;-71
2023/05/27 02:51:08;;;;;;;;;;;18.60;49.40;;;;;;5158837;27;19961;-70
2023/05/27 02:53:34;;;;;;;;;;;18.50;49.30;;;;;;5159117;27;19954;-70
2023/05/27 02:55:59;;;;;;;;;;;18.50;49.30;;;;;;5177584;27;19918;-72
2023/05/27 02:58:25;;;;;;;;;;;18.50;49.30;;;;;;5159294;27;19974;-71
2023/05/27 03:00:51;;;;;;;;;;;18.50;49.40;;;;;;5177320;27;20017;-71
2023/05/27 03:03:17;;;;;;;;;;;18.50;49.40;;;;;;5158607;27;19944;-71
2023/05/27 03:05:42;;;;;;;;;;;18.50;49.30;;;;;;5158607;27;19919;-71
2023/05/27 03:08:08;;;;;;;;;;;18.50;49.30;;;;;;5176880;27;20026;-71
2023/05/27 03:10:33;;;;;;;;;;;18.50;49.40;;;;;;5152776;27;19926;-71
2023/05/27 03:12:59;;;;;;;;;;;18.50;49.40;;;;;;5137359;27;19966;-71
2023/05/27 03:15:24;;;;;;;;;;;18.50;50.10;;;;;;5137570;27;19923;-71
2023/05/27 03:17:51;;;;;;;;;;;18.50;49.40;;;;;;5137223;27;19923;-72
2023/05/27 03:20:18;;;;;;;;;;;18.50;49.40;;;;;;5137568;27;19926;-72
2023/05/27 03:22:44;;;;;;;;;;;18.50;49.40;;;;;;5156309;27;19919;-72
2023/05/27 03:25:10;;;;;;;;;;;18.50;49.40;;;;;;5156630;27;20002;-71
2023/05/27 03:27:35;;;;;;;;;;;18.50;49.30;;;;;;5156249;27;20014;-72
2023/05/27 03:30:02;;;;;;;;;;;18.40;49.30;;;;;;5156252;27;19923;-71
2023/05/27 03:32:28;;;;;;;;;;;18.40;49.30;;;;;;5137485;27;19970;-71
2023/05/27 03:34:53;;;;;;;;;;;18.40;49.30;;;;;;5137190;27;19931;-71
2023/05/27 03:37:19;;;;;;;;;;;18.40;49.30;;;;;;5136898;27;20538;-71
2023/05/27 03:39:45;;;;;;;;;;;18.40;49.30;;;;;;5136903;27;19919;-72
2023/05/27 03:42:10;;;;;;;;;;;18.40;49.30;;;;;;5137279;27;19919;-71
2023/05/27 03:44:36;;;;;;;;;;;18.40;49.30;;;;;;5155677;27;19923;-71
2023/05/27 03:47:02;;;;;;;;;;;18.40;49.30;;;;;;5137090;27;20044;-71
2023/05/27 03:49:27;;;;;;;;;;;18.40;49.40;;;;;;5137562;27;19919;-71
2023/05/27 03:51:53;;;;;;;;;;;18.40;49.30;;;;;;5155841;27;20366;-71
2023/05/27 03:54:18;;;;;;;;;;;18.40;49.30;;;;;;5155824;27;19927;-71
2023/05/27 03:56:44;;;;;;;;;;;18.40;49.30;;;;;;5136114;27;19919;-72
2023/05/27 03:59:11;;;;;;;;;;;18.40;49.40;;;;;;5136482;27;19923;-71
2023/05/27 04:01:37;;;;;;;;;;;18.40;49.40;;;;;;5136822;27;19919;-71
2023/05/27 04:04:03;;;;;;;;;;;18.30;49.30;;;;;;5136740;27;19925;-71
2023/05/27 04:06:33;;;;;;;;;;;18.30;49.40;;;;;;5136673;27;20293;-72
2023/05/27 04:08:58;;;;;;;;;;;18.30;49.30;;;;;;5137099;27;19923;-71
2023/05/27 04:11:26;;;;;;;;;;;18.30;49.30;;;;;;5168034;27;19926;-69
2023/05/27 04:13:51;;;;;;;;;;;18.40;49.40;;;;;;5157575;27;19945;-71
2023/05/27 04:16:17;;;;;;;;;;;18.30;49.40;;;;;;5157393;27;20413;-72
2023/05/27 04:18:48;;;;;;;;;;;18.30;49.40;;;;;;5175409;27;20293;-72
2023/05/27 04:21:15;;;;;;;;;;;18.30;49.30;;;;;;5174969;27;20021;-71
2023/05/27 04:23:40;;;;;;;;;;;18.30;49.40;;;;;;5156493;27;20524;-72
2023/05/27 04:26:06;;;;;;;;;;;18.30;49.40;;;;;;5175221;27;20017;-71
2023/05/27 04:28:35;;;;;;;;;;;18.30;49.40;;;;;;5156799;27;20009;-71
2023/05/27 04:31:00;;;;;;;;;;;18.30;49.40;;;;;;5156956;27;19941;-71
2023/05/27 04:33:26;;;;;;;;;;;18.30;49.40;;;;;;5156126;27;19919;-71
2023/05/27 04:35:53;;;;;;;;;;;18.30;49.40;;;;;;5174898;27;20358;-71
2023/05/27 04:38:20;;;;;;;;;;;18.30;49.40;;;;;;5156439;27;19983;-71
2023/05/27 04:40:52;;;;;;;;;;;18.30;49.40;;;;;;5156432;27;19925;-71
2023/05/27 04:43:19;;;;;;;;;;;18.30;49.40;;;;;;5175118;27;19963;-72
2023/05/27 04:45:44;;;;;;;;;;;18.30;49.40;;;;;;5175216;27;19926;-71
2023/05/27 04:48:10;;;;;;;;;;;18.30;49.50;;;;;;5156720;27;19987;-71
2023/05/27 04:50:36;;;;;;;;;;;18.30;49.50;;;;;;5157017;27;20281;-71
2023/05/27 04:53:02;;;;;;;;;;;18.30;49.50;;;;;;5175237;27;19919;-71
2023/05/27 04:55:28;;;;;;;;;;;18.30;49.50;;;;;;5156165;27;19970;-69
2023/05/27 04:57:53;;;;;;;;;;;18.20;49.40;;;;;;5156596;27;19919;-71
2023/05/27 05:00:23;;;;;;;;;;;18.30;49.50;;;;;;5155820;27;19922;-72
2023/05/27 05:02:50;;;;;;;;;;;18.30;49.60;;;;;;5175030;27;19930;-71
2023/05/27 05:05:15;;;;;;;;;;;18.30;49.60;;;;;;5156192;27;19970;-71
2023/05/27 05:07:41;;;;;;;;;;;18.20;49.50;;;;;;5156582;27;20017;-72
2023/05/27 05:10:08;;;;;;;;;;;18.20;49.50;;;;;;5173545;27;19925;-71
2023/05/27 05:12:33;;;;;;;;;;;18.20;49.50;;;;;;5136168;27;19927;-71
2023/05/27 05:14:59;;;;;;;;;;;18.20;49.50;;;;;;5135699;27;20378;-72
2023/05/27 05:17:25;;;;;;;;;;;18.20;49.50;;;;;;5135644;27;19926;-71
2023/05/27 05:19:51;;;;;;;;;;;18.20;50.30;;;;;;5135755;27;19923;-71
2023/05/27 05:22:18;;;;;;;;;;;18.20;49.60;;;;;;5135614;27;19926;-71
2023/05/27 05:24:44;;;;;;;;;;;18.20;49.70;;;;;;5154092;27;19981;-71
2023/05/27 05:27:09;;;;;;;;;;;18.20;49.70;;;;;;5135145;27;20385;-71
2023/05/27 05:29:36;;;;;;;;;;;18.20;49.70;;;;;;5135450;27;19973;-71
2023/05/27 05:32:02;;;;;;;;;;;18.20;49.70;;;;;;5135487;27;20018;-71
2023/05/27 05:34:27;;;;;;;;;;;18.20;49.70;;;;;;5135062;27;20349;-72
2023/05/27 05:36:53;;;;;;;;;;;18.20;49.70;;;;;;5135654;27;19923;-71
2023/05/27 05:39:20;;;;;;;;;;;18.20;49.70;;;;;;5153659;27;19922;-71
2023/05/27 05:41:45;;;;;;;;;;;18.20;49.80;;;;;;5153349;27;20012;-72
2023/05/27 05:44:11;;;;;;;;;;;18.20;49.80;;;;;;5134563;27;20352;-71
2023/05/27 05:46:37;;;;;;;;;;;18.20;49.80;;;;;;5135060;27;20345;-71
2023/05/27 05:49:02;;;;;;;;;;;18.20;49.90;;;;;;5134491;27;20384;-71
2023/05/27 05:51:28;;;;;;;;;;;18.20;49.80;;;;;;5153486;27;19919;-71
2023/05/27 05:53:53;;;;;;;;;;;18.20;49.80;;;;;;5135181;27;19923;-71
2023/05/27 05:56:18;;;;;;;;;;;18.20;49.80;;;;;;5134679;27;19948;-71
2023/05/27 05:58:44;;;;;;;;;;;18.20;49.90;;;;;;5134878;27;19919;-71
2023/05/27 06:01:10;;;;;;;;;;;18.20;49.90;;;;;;5134670;27;20548;-71
2023/05/27 06:03:36;;;;;;;;;;;18.20;49.90;;;;;;5134463;27;20028;-71
2023/05/27 06:06:02;;;;;;;;;;;18.20;49.90;;;;;;5134886;27;20042;-71
2023/05/27 06:08:28;;;;;;;;;;;18.20;50.00;;;;;;5134768;27;20390;-71
2023/05/27 06:10:53;;;;;;;;;;;18.20;49.90;;;;;;5143450;27;19919;-71
2023/05/27 06:13:19;;;;;;;;;;;18.20;50.00;;;;;;5174524;27;20018;-71
2023/05/27 06:15:44;;;;;;;;;;;18.20;50.10;;;;;;5155637;27;20411;-71
2023/05/27 06:18:10;;;;;;;;;;;18.20;50.10;;;;;;5174168;27;19925;-71
2023/05/27 06:20:35;;;;;;;;;;;18.20;50.10;;;;;;5155926;27;19926;-71
2023/05/27 06:23:01;;;;;;;;;;;18.10;50.10;;;;;;5177370;27;19918;-71
2023/05/27 06:25:26;;;;;;;;;;;18.20;50.20;;;;;;5177822;27;19919;-71
2023/05/27 06:27:52;;;;;;;;;;;18.10;50.90;;;;;;5159243;27;20009;-70
2023/05/27 06:30:17;;;;;;;;;;;18.10;50.10;;;;;;5159441;27;19918;-71
2023/05/27 06:32:43;;;;;;;;;;;18.10;50.20;;;;;;5159305;27;19925;-71
2023/05/27 06:35:08;;;;;;;;;;;18.10;50.20;;;;;;5158927;27;19992;-71
2023/05/27 06:37:34;;;;;;;;;;;18.10;50.30;;;;;;5159731;27;19967;-71
2023/05/27 06:39:59;;;;;;;;;;;18.10;50.20;;;;;;5178234;27;19965;-71
2023/05/27 06:42:25;;;;;;;;;;;18.20;51.00;;;;;;5177659;27;19918;-72
2023/05/27 06:44:50;;;;;;;;;;;18.10;50.20;;;;;;5159198;27;19919;-72
2023/05/27 06:47:16;;;;;;;;;;;18.10;50.30;;;;;;5159485;27;20389;-70
2023/05/27 06:49:41;;;;;;;;;;;18.10;50.40;;;;;;5177969;27;20377;-70
2023/05/27 06:52:07;;;;;;;;;;;18.10;50.30;;;;;;5177609;27;20472;-70
2023/05/27 06:54:32;;;;;;;;;;;18.10;50.40;;;;;;5158626;27;19934;-70
2023/05/27 06:56:58;;;;;;;;;;;18.10;50.40;;;;;;5159254;27;19930;-71
2023/05/27 06:59:23;;;;;;;;;;;18.10;50.40;;;;;;5159300;27;20448;-70
2023/05/27 07:01:49;;;;;;;;;;;18.10;50.50;;;;;;5158969;27;19919;-70
2023/05/27 07:04:15;;;;;;;;;;;18.10;50.50;;;;;;5177004;27;20409;-70
2023/05/27 07:06:40;;;;;;;;;;;18.10;50.50;;;;;;5158081;27;20297;-71
2023/05/27 07:09:06;;;;;;;;;;;18.10;50.50;;;;;;5158377;27;19919;-71
2023/05/27 07:11:31;;;;;;;;;;;18.10;50.50;;;;;;5163291;27;19919;-70
2023/05/27 07:13:57;;;;;;;;;;;18.10;50.50;;;;;;5137522;27;20386;-70
2023/05/27 07:16:22;;;;;;;;;;;18.10;50.50;;;;;;5138198;27;19942;-70
2023/05/27 07:18:48;;;;;;;;;;;18.10;50.50;;;;;;5138027;27;19922;-70
2023/05/27 07:21:13;;;;;;;;;;;18.10;50.60;;;;;;5156406;27;19919;-70
2023/05/27 07:23:39;;;;;;;;;;;18.10;50.60;;;;;;5156238;27;20010;-70
2023/05/27 07:26:04;;;;;;;;;;;18.10;50.60;;;;;;5137504;27;19927;-71
2023/05/27 07:28:32;;;;;;;;;;;18.10;50.60;;;;;;5155401;27;20362;-71
2023/05/27 07:30:57;;;;;;;;;;;18.10;50.60;;;;;;5137623;27;19926;-71
2023/05/27 07:33:23;;;;;;;;;;;18.10;50.70;;;;;;5155520;27;20278;-71
2023/05/27 07:35:49;;;;;;;;;;;18.10;50.70;;;;;;5137107;27;19927;-71
2023/05/27 07:38:14;;;;;;;;;;;18.10;50.60;;;;;;5156041;27;19919;-71
2023/05/27 07:40:40;;;;;;;;;;;18.20;50.70;;;;;;5155756;27;20073;-71
2023/05/27 07:43:05;;;;;;;;;;;18.10;50.60;;;;;;5156189;27;19970;-71
2023/05/27 07:45:31;;;;;;;;;;;18.10;50.60;;;;;;5137020;27;19919;-71
2023/05/27 07:47:57;;;;;;;;;;;18.10;50.70;;;;;;5136487;27;19926;-71
2023/05/27 07:50:22;;;;;;;;;;;18.10;50.70;;;;;;5137068;27;19971;-70
2023/05/27 07:52:48;;;;;;;;;;;18.10;50.70;;;;;;5155584;27;20255;-71
2023/05/27 07:55:13;;;;;;;;;;;18.10;50.70;;;;;;5136931;27;20263;-70
2023/05/27 07:57:39;;;;;;;;;;;18.10;50.70;;;;;;5155852;27;20013;-70
2023/05/27 08:00:06;;;;;;;;;;;18.10;50.70;;;;;;5155766;27;20279;-71
2023/05/27 08:02:31;;;;;;;;;;;18.10;50.70;;;;;;5155725;27;20006;-71
2023/05/27 08:04:57;;;;;;;;;;;18.10;50.70;;;;;;5137299;27;20014;-71
2023/05/27 08:07:22;;;;;;;;;;;18.10;50.70;;;;;;5154913;27;19919;-71
2023/05/27 08:09:48;;;;;;;;;;;18.20;50.80;;;;;;5155048;27;20015;-71
2023/05/27 08:12:13;;;;;;;;;;;18.20;50.80;;;;;;5174830;27;19918;-71
2023/05/27 08:14:40;;;;;;;;;;;18.20;50.80;;;;;;5156769;27;19926;-71
2023/05/27 08:17:05;;;;;;;;;;;18.20;50.80;;;;;;5157518;27;19970;-71
2023/05/27 08:19:31;;;;;;;;;;;18.20;50.90;;;;;;5176138;27;20362;-71
2023/05/27 08:21:57;;;;;;;;;;;18.20;50.90;;;;;;5157596;27;19919;-70
2023/05/27 08:24:22;;;;;;;;;;;18.20;50.90;;;;;;5157609;27;19918;-71
2023/05/27 08:26:48;;;;;;;;;;;18.20;50.90;;;;;;5156919;27;20294;-71
2023/05/27 08:29:14;;;;;;;;;;;18.20;50.90;;;;;;5156916;27;19927;-71
2023/05/27 08:31:40;;;;;;;;;;;18.20;50.90;;;;;;5174872;27;20444;-71
2023/05/27 08:34:06;;;;;;;;;;;18.20;50.80;;;;;;5174726;27;20047;-72
2023/05/27 08:36:31;;;;;;;;;;;18.20;50.90;;;;;;5175431;27;19919;-71
2023/05/27 08:38:57;;;;;;;;;;;18.20;50.90;;;;;;5156402;27;19958;-71
2023/05/27 08:41:22;;;;;;;;;;;18.30;50.90;;;;;;5156601;27;20383;-71
2023/05/27 08:43:49;;;;;;;;;;;18.30;50.80;;;;;;5156566;27;19923;-71
2023/05/27 08:46:14;;;;;;;;;;;18.30;50.90;;;;;;5157192;27;19941;-71
2023/05/27 08:48:40;;;;;;;;;;;18.30;50.90;;;;;;5175471;27;19971;-70
2023/05/27 08:51:06;;;;;;;;;;;18.30;50.80;;;;;;5156414;27;20009;-70
2023/05/27 08:53:32;;;;;;;;;;;18.30;50.60;;;;;;5156600;27;19922;-71
2023/05/27 08:55:59;;;;;;;;;;;18.30;50.60;;;;;;5156271;27;20634;-71
2023/05/27 08:58:26;;;;;;;;;;;18.40;50.60;;;;;;5156313;27;19925;-71
2023/05/27 09:00:52;;;;;;;;;;;18.40;50.60;;;;;;5174717;27;19926;-71
2023/05/27 09:03:17;;;;;;;;;;;18.40;50.50;;;;;;5155968;27;19919;-71
2023/05/27 09:05:43;;;;;;;;;;;18.40;50.40;;;;;;5156495;27;19922;-71
2023/05/27 09:08:09;;;;;;;;;;;18.50;50.40;;;;;;5156025;27;20412;-70
2023/05/27 09:10:35;;;;;;;;;;;18.40;50.40;;;;;;5150418;27;19919;-71
2023/05/27 09:13:00;;;;;;;;;;;18.50;50.30;;;;;;5154087;27;19935;-70
2023/05/27 09:15:26;;;;;;;;;;;18.50;50.30;;;;;;5135689;27;19945;-70
2023/05/27 09:17:52;;;;;;;;;;;18.50;50.30;;;;;;5135671;27;19919;-71
2023/05/27 09:20:24;;;;;;;;;;;18.60;50.30;;;;;;5135504;27;19933;-71
2023/05/27 09:22:55;;;;;;;;;;;18.60;50.30;;;;;;5135846;27;19923;-71
2023/05/27 09:25:23;;;;;;;;;;;18.60;50.30;;;;;;5154133;27;19927;-71
2023/05/27 09:27:49;;;;;;;;;;;18.60;50.30;;;;;;5135360;27;19927;-71
2023/05/27 09:30:15;;;;;;;;;;;18.60;50.30;;;;;;5152946;27;19919;-71
2023/05/27 09:32:40;;;;;;;;;;;18.60;50.30;;;;;;5117773;27;19926;-71
2023/05/27 09:35:07;;;;;;;;;;;18.70;50.40;;;;;;5152589;27;20010;-71
2023/05/27 09:37:34;;;;;;;;;;;18.60;50.20;;;;;;5153921;27;19923;-71
2023/05/27 09:40:04;;;;;;;;;;;18.70;50.30;;;;;;5135095;27;19919;-71
2023/05/27 09:42:46;;;;;;;;;;;18.70;50.20;;;;;;5134925;27;19946;-70
2023/05/27 09:45:13;;;;;;;;;;;18.70;50.20;;;;;;5135483;27;19970;-71
2023/05/27 09:47:40;;;;;;;;;;;18.70;50.10;;;;;;5153927;27;19967;-71
2023/05/27 09:50:07;;;;;;;;;;;18.70;50.10;;;;;;5135487;27;19987;-71
2023/05/27 09:52:34;;;;;;;;;;;18.80;50.10;;;;;;5135386;27;20409;-70
2023/05/27 09:55:00;;;;;;;;;;;18.70;50.10;;;;;;5134078;27;19930;-71
2023/05/27 09:57:25;;;;;;;;;;;18.80;50.80;;;;;;5138748;27;19919;-70
2023/05/27 09:59:51;;;;;;;;;;;18.80;50.20;;;;;;5157902;27;19927;-72
2023/05/27 10:02:18;;;;;;;;;;;18.80;50.10;;;;;;5138995;27;20223;-71
2023/05/27 10:04:44;;;;;;;;;;;18.80;50.20;;;;;;5139200;27;20021;-71
2023/05/27 10:07:10;;;;;;;;;;;18.80;50.10;;;;;;5157881;27;20323;-71
2023/05/27 10:09:36;;;;;;;;;;;18.80;50.20;;;;;;5138988;27;19975;-71
2023/05/27 10:12:01;;;;;;;;;;;18.80;50.10;;;;;;5156944;27;19919;-71
2023/05/27 10:14:27;;;;;;;;;;;18.80;50.10;;;;;;5159456;27;19922;-71
2023/05/27 10:16:54;;;;;;;;;;;18.90;50.30;;;;;;5177971;27;20266;-71
2023/05/27 10:19:19;;;;;;;;;;;18.80;50.20;;;;;;5159197;27;19930;-71
2023/05/27 10:21:45;;;;;;;;;;;18.80;50.30;;;;;;5178198;27;19922;-71
2023/05/27 10:24:12;;;;;;;;;;;18.80;50.30;;;;;;5159993;27;19923;-71
2023/05/27 10:26:40;;;;;;;;;;;18.90;50.20;;;;;;5159316;27;19919;-71
2023/05/27 10:29:07;;;;;;;;;;;18.90;50.40;;;;;;5159895;27;20285;-71
2023/05/27 10:31:33;;;;;;;;;;;18.80;50.30;;;;;;5159828;27;20118;-71
2023/05/27 10:33:58;;;;;;;;;;;18.90;50.20;;;;;;5159016;27;19927;-71
2023/05/27 10:36:26;;;;;;;;;;;18.90;50.40;;;;;;5177700;27;19974;-71
2023/05/27 10:38:56;;;;;;;;;;;18.90;50.60;;;;;;5159576;27;19925;-71
2023/05/27 10:41:22;;;;;;;;;;;18.80;50.40;;;;;;5159635;27;19925;-71
2023/05/27 10:43:56;;;;;;;;;;;18.90;50.40;;;;;;5159456;27;20373;-71
2023/05/27 10:46:21;;;;;;;;;;;18.90;50.60;;;;;;5159049;27;19926;-71
2023/05/27 10:48:47;;;;;;;;;;;18.90;51.20;;;;;;5159654;27;19919;-70
2023/05/27 10:51:12;;;;;;;;;;;18.90;50.60;;;;;;5159261;27;20282;-71
2023/05/27 10:53:37;;;;;;;;;;;18.90;50.70;;;;;;5177674;27;19923;-71
2023/05/27 10:56:03;;;;;;;;;;;18.90;50.60;;;;;;5158266;27;20374;-71
2023/05/27 10:58:29;;;;;;;;;;;18.80;50.60;;;;;;5158350;27;19975;-71
2023/05/27 11:00:56;;;;;;;;;;;18.80;50.60;;;;;;5158974;27;19919;-71
2023/05/27 11:03:23;;;;;;;;;;;18.90;50.70;;;;;;5158114;27;19919;-71
2023/05/27 11:06:05;;;;;;;;;;;18.80;50.60;;;;;;5177202;27;19927;-71
2023/05/27 11:08:31;;;;;;;;;;;18.90;50.80;;;;;;5158710;27;19971;-71
2023/05/27 11:11:01;;;;;;;;;;;18.80;50.80;;;;;;5150130;27;20246;-71
2023/05/27 11:13:34;;;;;;;;;;;18.80;50.70;;;;;;5138374;27;19923;-71
2023/05/27 11:16:00;;;;;;;;;;;18.80;50.70;;;;;;5156363;27;19924;-71
2023/05/27 11:18:33;;;;;;;;;;;18.80;50.80;;;;;;5137709;27;19969;-71
2023/05/27 11:20:59;;;;;;;;;;;18.80;51.00;;;;;;5137507;27;20404;-71
2023/05/27 11:23:33;;;;;;;;;;;18.80;51.00;;;;;;5137035;27;19927;-71
2023/05/27 11:25:58;;;;;;;;;;;18.90;51.10;;;;;;5137651;27;19919;-71
2023/05/27 11:28:24;;;;;;;;;;;18.80;50.80;;;;;;5137463;27;19967;-71
2023/05/27 11:30:50;;;;;;;;;;;18.80;50.90;;;;;;5137257;27;19930;-71
2023/05/27 11:33:16;;;;;;;;;;;18.90;50.90;;;;;;5155556;27;19919;-71
2023/05/27 11:35:41;;;;;;;;;;;18.80;50.90;;;;;;5136943;27;19923;-72
2023/05/27 11:38:16;;;;;;;;;;;18.80;51.00;;;;;;5137408;27;19971;-72
2023/05/27 11:40:41;;;;;;;;;;;18.90;51.00;;;;;;5137332;27;19941;-71
2023/05/27 11:43:07;;;;;;;;;;;18.90;51.10;;;;;;5137163;27;19919;-71
2023/05/27 11:45:34;;;;;;;;;;;18.90;51.10;;;;;;5155971;27;19927;-71
2023/05/27 11:48:01;;;;;;;;;;;18.90;51.10;;;;;;5137001;27;19919;-71
2023/05/27 11:50:27;;;;;;;;;;;18.90;51.20;;;;;;5155738;27;19919;-71
2023/05/27 11:52:54;;;;;;;;;;;18.80;51.10;;;;;;5137472;27;19919;-71
2023/05/27 11:55:20;;;;;;;;;;;18.90;51.20;;;;;;5137118;27;19931;-71
2023/05/27 11:57:45;;;;;;;;;;;18.80;51.20;;;;;;5137308;27;19919;-71
2023/05/27 12:00:11;;;;;;;;;;;18.90;51.10;;;;;;5155300;27;19944;-71
2023/05/27 12:02:37;;;;;;;;;;;18.90;51.10;;;;;;5136586;27;19926;-71
2023/05/27 12:05:03;;;;;;;;;;;18.90;52.00;;;;;;5137216;27;19923;-72
2023/05/27 12:07:28;;;;;;;;;;;18.80;51.20;;;;;;5137125;27;19923;-71
2023/05/27 12:09:54;;;;;;;;;;;18.90;51.30;;;;;;5135812;27;20297;-72
2023/05/27 12:12:20;;;;;;;;;;;18.90;51.30;;;;;;5156773;27;19919;-71
2023/05/27 12:14:45;;;;;;;;;;;18.90;51.40;;;;;;5156829;27;19922;-71
2023/05/27 12:17:11;;;;;;;;;;;18.90;51.30;;;;;;5156878;27;19923;-70
2023/05/27 12:19:37;;;;;;;;;;;18.90;51.40;;;;;;5155113;27;19926;-72
2023/05/27 12:22:02;;;;;;;;;;;18.90;51.40;;;;;;5175678;27;19955;-70
2023/05/27 12:24:28;;;;;;;;;;;18.90;51.50;;;;;;5156652;27;20141;-72
2023/05/27 12:26:53;;;;;;;;;;;18.90;51.50;;;;;;5156657;27;19967;-71
2023/05/27 12:29:21;;;;;;;;;;;18.90;51.50;;;;;;5156347;27;19919;-71
2023/05/27 12:31:47;;;;;;;;;;;18.90;51.60;;;;;;5173970;27;19919;-71
2023/05/27 12:34:13;;;;;;;;;;;18.90;51.60;;;;;;5156552;27;20285;-70
2023/05/27 12:36:41;;;;;;;;;;;18.90;51.60;;;;;;5157288;27;19923;-71
2023/05/27 12:39:07;;;;;;;;;;;18.90;51.60;;;;;;5157004;27;19922;-71
2023/05/27 12:41:32;;;;;;;;;;;19.00;51.70;;;;;;5156922;27;19926;-70
2023/05/27 12:43:59;;;;;;;;;;;19.00;51.70;;;;;;5174900;27;19918;-71
2023/05/27 12:46:24;;;;;;;;;;;19.00;51.70;;;;;;5175046;27;19926;-70
2023/05/27 12:48:50;;;;;;;;;;;19.00;51.70;;;;;;5155946;27;19919;-70
2023/05/27 12:51:15;;;;;;;;;;;19.00;51.70;;;;;;5156631;27;20021;-70
2023/05/27 12:53:41;;;;;;;;;;;19.00;51.70;;;;;;5175037;27;20325;-70
2023/05/27 12:56:06;;;;;;;;;;;19.00;51.80;;;;;;5156568;27;20049;-71
2023/05/27 12:58:32;;;;;;;;;;;19.00;51.80;;;;;;5157013;27;19923;-71
2023/05/27 13:00:57;;;;;;;;;;;19.00;51.70;;;;;;5175133;27;20025;-72
2023/05/27 13:03:23;;;;;;;;;;;19.00;51.80;;;;;;5174163;27;19922;-71
2023/05/27 13:05:49;;;;;;;;;;;19.00;51.70;;;;;;5154879;27;19930;-68
2023/05/27 13:08:14;;;;;;;;;;;19.00;51.90;;;;;;5156480;27;19946;-72
2023/05/27 13:10:40;;;;;;;;;;;19.00;51.80;;;;;;5168838;27;19963;-71
2023/05/27 13:13:06;;;;;;;;;;;19.00;51.90;;;;;;5136164;27;19923;-71
2023/05/27 13:15:32;;;;;;;;;;;19.00;51.80;;;;;;5135634;27;19927;-72
2023/05/27 13:17:59;;;;;;;;;;;19.00;51.80;;;;;;5136032;27;19919;-71
2023/05/27 13:20:25;;;;;;;;;;;19.00;51.80;;;;;;5154129;27;19942;-71
2023/05/27 13:22:52;;;;;;;;;;;19.00;51.90;;;;;;5135622;27;20512;-71
2023/05/27 13:25:18;;;;;;;;;;;19.00;51.90;;;;;;5135513;27;19919;-71
2023/05/27 13:27:44;;;;;;;;;;;19.00;51.90;;;;;;5135017;27;20304;-72
2023/05/27 13:30:11;;;;;;;;;;;19.00;52.60;;;;;;5135375;27;19923;-71
2023/05/27 13:32:36;;;;;;;;;;;19.10;51.90;;;;;;5154152;27;19919;-71
2023/05/27 13:35:02;;;;;;;;;;;19.10;52.00;;;;;;5153200;27;19923;-71
2023/05/27 13:37:28;;;;;;;;;;;19.00;51.90;;;;;;5134496;27;20337;-72
2023/05/27 13:39:54;;;;;;;;;;;19.10;51.90;;;;;;5134576;27;19975;-71
2023/05/27 13:42:19;;;;;;;;;;;19.10;52.00;;;;;;5134699;27;19923;-71
2023/05/27 13:44:45;;;;;;;;;;;19.10;52.10;;;;;;5134712;27;20255;-72
2023/05/27 13:47:10;;;;;;;;;;;19.10;52.10;;;;;;5154255;27;19949;-71
2023/05/27 13:49:36;;;;;;;;;;;19.10;52.00;;;;;;5135125;27;19919;-71
2023/05/27 13:52:02;;;;;;;;;;;19.10;52.10;;;;;;5135481;27;19963;-71
2023/05/27 13:54:27;;;;;;;;;;;19.10;52.10;;;;;;5135461;27;19923;-71
2023/05/27 13:56:53;;;;;;;;;;;19.10;52.10;;;;;;5134991;27;19919;-71
2023/05/27 13:59:19;;;;;;;;;;;19.10;52.10;;;;;;5135156;27;20030;-71
2023/05/27 14:01:44;;;;;;;;;;;19.10;52.10;;;;;;5134298;27;20481;-72
2023/05/27 14:04:10;;;;;;;;;;;19.10;52.10;;;;;;5134467;27;19971;-71
2023/05/27 14:06:36;;;;;;;;;;;19.10;52.10;;;;;;5135169;27;19997;-71
2023/05/27 14:09:02;;;;;;;;;;;19.20;52.20;;;;;;5153511;27;19919;-72
2023/05/27 14:11:27;;;;;;;;;;;19.20;52.20;;;;;;5147832;27;20417;-69